Time;durP1;ratioP1;P1;durP2;ratioP2;P2;SDS_P1;SDS_P2;PMS_P1;PMS_P2;Temp;Humidity;BMP_temperature;BMP_pressure;BME280_temperature;BME280_humidity;BME280_pressure;Samples;Min_cycle;Max_cycle;Signal;HPM_P1;HPM_P2
2023/05/15 00:01:50;;;;;;;0.98;0.60;;;;;;;23.18;42.50;100344.59;4518710;28;20101;-67
2023/05/15 00:04:01;;;;;;;0.70;0.50;;;;;;;23.10;42.53;100325.56;4519268;28;20409;-67
2023/05/15 00:06:11;;;;;;;0.77;0.70;;;;;;;23.10;42.60;100325.56;4496564;28;20046;-67
2023/05/15 00:08:22;;;;;;;0.50;0.50;;;;;;;23.14;42.46;100340.84;4519201;28;20099;-67
2023/05/15 00:10:32;;;;;;;0.63;0.63;;;;;;;23.04;42.32;100320.56;4519012;28;20045;-67
2023/05/15 00:12:43;;;;;;;0.73;0.63;;;;;;;23.13;42.70;100332.59;4519161;28;20029;-67
2023/05/15 00:14:53;;;;;;;0.60;0.60;;;;;;;23.14;42.29;100328.50;4519118;28;20037;-67
2023/05/15 00:17:04;;;;;;;0.50;0.50;;;;;;;23.10;42.14;100319.81;4518200;28;20776;-67
2023/05/15 00:19:15;;;;;;;0.70;0.50;;;;;;;23.13;42.28;100323.97;4518032;28;20104;-67
2023/05/15 00:21:26;;;;;;;0.68;0.40;;;;;;;23.12;42.20;100323.13;4518328;28;20033;-67
2023/05/15 00:23:37;;;;;;;0.57;0.57;;;;;;;23.13;42.69;100321.94;4499525;28;20121;-67
2023/05/15 00:25:47;;;;;;;0.50;0.50;;;;;;;23.13;42.37;100321.09;4517648;28;20037;-67
2023/05/15 00:27:57;;;;;;;0.65;0.60;;;;;;;23.12;42.75;100307.94;4517826;28;20119;-67
2023/05/15 00:30:08;;;;;;;0.60;0.60;;;;;;;23.13;42.51;100315.34;4517779;28;20136;-67
2023/05/15 00:32:19;;;;;;;0.60;0.60;;;;;;;23.12;42.31;100313.69;4517311;28;20041;-67
2023/05/15 00:34:29;;;;;;;0.50;0.50;;;;;;;23.12;42.34;100314.50;4516210;28;20119;-67
2023/05/15 00:36:41;;;;;;;0.60;0.60;;;;;;;23.10;42.55;100311.16;4517494;28;20026;-67
2023/05/15 00:38:52;;;;;;;0.60;0.60;;;;;;;23.08;42.31;100296.34;4516528;28;20752;-67
2023/05/15 00:41:05;;;;;;;0.70;0.70;;;;;;;23.13;42.46;100309.56;4517545;28;20780;-67
2023/05/15 00:43:16;;;;;;;0.60;0.60;;;;;;;23.11;42.15;100301.31;4518660;28;20041;-67
2023/05/15 00:45:27;;;;;;;0.57;0.50;;;;;;;23.08;42.18;100302.13;4476887;28;20037;-67
2023/05/15 00:47:39;;;;;;;0.55;0.55;;;;;;;23.10;42.37;100304.59;4516314;28;20044;-67
2023/05/15 00:49:50;;;;;;;0.70;0.70;;;;;;;23.08;42.18;100307.03;4499619;28;20632;-67
2023/05/15 00:52:04;;;;;;;0.80;0.80;;;;;;;23.10;42.25;100305.41;4518220;28;20022;-67
2023/05/15 00:54:15;;;;;;;1.33;0.80;;;;;;;23.05;42.57;100302.06;4499792;28;20049;-67
2023/05/15 00:56:29;;;;;;;0.73;0.73;;;;;;;23.07;42.14;100303.31;4518222;28;20029;-67
2023/05/15 00:58:41;;;;;;;1.80;0.70;;;;;;;23.09;42.51;100314.44;4516173;28;20128;-66
2023/05/15 01:00:52;;;;;;;0.65;0.65;;;;;;;23.09;42.32;100305.81;4499967;28;20038;-67
2023/05/15 01:03:04;;;;;;;0.70;0.70;;;;;;;23.09;42.18;100302.91;4515950;28;20041;-67
2023/05/15 01:05:15;;;;;;;1.10;0.60;;;;;;;23.09;42.54;100302.91;4517321;28;20022;-67
2023/05/15 01:07:28;;;;;;;0.70;0.70;;;;;;;23.06;42.63;100304.53;4498843;28;20799;-67
2023/05/15 01:09:42;;;;;;;0.60;0.60;;;;;;;23.09;42.24;100308.69;4517646;28;20087;-67
2023/05/15 01:11:56;;;;;;;0.70;0.70;;;;;;;23.08;42.65;100301.28;4517557;28;20041;-67
2023/05/15 01:14:07;;;;;;;0.60;0.60;;;;;;;23.05;42.50;100302.06;4515736;28;20021;-67
2023/05/15 01:16:20;;;;;;;0.60;0.60;;;;;;;23.08;42.28;100307.03;4517864;28;20748;-66
2023/05/15 01:18:32;;;;;;;0.60;0.60;;;;;;;23.06;42.17;100303.72;4497939;28;20104;-66
2023/05/15 01:20:56;;;;;;;0.80;0.80;;;;;;;23.05;42.20;100300.03;4499594;28;20128;-67
2023/05/15 01:23:32;;;;;;;0.60;0.60;;;;;;;23.06;42.26;100304.53;4498462;28;20034;-67
2023/05/15 01:25:56;;;;;;;0.63;0.63;;;;;;;23.04;42.25;100300.41;4506205;28;20060;-67
2023/05/15 01:28:18;;;;;;;0.70;0.70;;;;;;;23.05;42.19;100299.19;4498906;28;20652;-66
2023/05/15 01:30:35;;;;;;;0.60;0.60;;;;;;;23.06;42.25;100295.91;4517525;28;20091;-67
2023/05/15 01:32:47;;;;;;;0.60;0.60;;;;;;;23.04;42.15;100295.47;4517627;28;20863;-67
2023/05/15 01:35:17;;;;;;;0.85;0.65;;;;;;;23.06;42.27;100297.94;4516799;28;20038;-67
2023/05/15 01:37:30;;;;;;;0.55;0.55;;;;;;;23.04;42.47;100294.66;4514986;28;20257;-67
2023/05/15 01:39:43;;;;;;;0.60;0.60;;;;;;;23.02;42.40;100302.84;4517143;28;20037;-67
2023/05/15 01:42:05;;;;;;;0.70;0.70;;;;;;;23.04;42.06;100300.41;4514861;28;20041;-67
2023/05/15 01:44:27;;;;;;;0.60;0.60;;;;;;;23.03;42.21;100290.09;4491014;28;20038;-67
2023/05/15 01:46:42;;;;;;;0.60;0.60;;;;;;;23.02;42.11;100295.03;4517317;28;20095;-67
2023/05/15 01:48:53;;;;;;;0.60;0.60;;;;;;;23.03;42.38;100278.59;4517015;28;20034;-67
2023/05/15 01:51:06;;;;;;;0.73;0.60;;;;;;;23.03;42.33;100284.34;4517183;28;20037;-67
2023/05/15 01:53:19;;;;;;;0.60;0.60;;;;;;;23.01;42.15;100284.72;4516393;28;20038;-67
2023/05/15 01:55:30;;;;;;;0.52;0.52;;;;;;;23.02;42.32;100288.44;4498702;28;20037;-67
2023/05/15 01:57:41;;;;;;;0.75;0.65;;;;;;;23.01;42.39;100289.66;4498226;28;20694;-67
2023/05/15 01:59:52;;;;;;;0.60;0.60;;;;;;;23.00;41.92;100288.00;4515037;28;20608;-67
2023/05/15 02:02:04;;;;;;;0.60;0.60;;;;;;;23.00;42.14;100288.84;4516675;28;20038;-67
2023/05/15 02:04:15;;;;;;;0.77;0.60;;;;;;;23.01;42.08;100283.91;4516593;28;20041;-67
2023/05/15 02:06:27;;;;;;;0.60;0.60;;;;;;;23.00;42.18;100288.00;4514743;28;20029;-67
2023/05/15 02:08:39;;;;;;;0.70;0.60;;;;;;;23.00;42.15;100285.97;4516807;28;20112;-67
2023/05/15 02:10:51;;;;;;;0.60;0.60;;;;;;;22.99;41.91;100283.47;4515344;28;20045;-67
2023/05/15 02:13:06;;;;;;;1.08;0.63;;;;;;;22.99;42.07;100280.59;4514495;28;20057;-67
2023/05/15 02:15:17;;;;;;;0.85;0.70;;;;;;;22.95;42.09;100274.78;4500440;28;20115;-67
2023/05/15 02:17:30;;;;;;;0.60;0.60;;;;;;;22.94;42.10;100272.31;4514911;28;20032;-67
2023/05/15 02:19:40;;;;;;;0.60;0.60;;;;;;;22.95;42.00;100279.72;4516762;28;20520;-67
2023/05/15 02:21:52;;;;;;;0.57;0.57;;;;;;;22.98;42.20;100278.94;4517273;28;20104;-67
2023/05/15 02:24:03;;;;;;;0.60;0.60;;;;;;;22.98;42.32;100279.75;4498991;28;20605;-67
2023/05/15 02:26:34;;;;;;;0.82;0.60;;;;;;;22.98;42.19;100278.94;4515557;28;20033;-67
2023/05/15 02:29:32;;;;;;;0.60;0.60;;;;;;;22.97;42.32;100275.25;4516536;28;20831;-67
2023/05/15 02:32:14;;;;;;;0.60;0.60;;;;;;;22.93;42.15;100277.22;4512245;28;20125;-67
2023/05/15 02:34:38;;;;;;;0.60;0.60;;;;;;;22.97;42.23;100274.41;4515864;28;20033;-67
2023/05/15 02:36:51;;;;;;;0.80;0.80;;;;;;;22.95;41.83;100279.72;4516427;28;21036;-67
2023/05/15 02:39:02;;;;;;;0.57;0.57;;;;;;;22.96;41.95;100269.88;4514661;28;20048;-67
2023/05/15 02:41:14;;;;;;;0.60;0.60;;;;;;;22.94;42.16;100269.44;4516837;28;20511;-67
2023/05/15 02:43:25;;;;;;;0.80;0.60;;;;;;;22.95;42.24;100273.97;4516657;28;20096;-67
2023/05/15 02:45:36;;;;;;;1.20;0.68;;;;;;;22.93;42.10;100264.91;4516404;28;20714;-67
2023/05/15 02:47:49;;;;;;;0.60;0.57;;;;;;;22.93;42.39;100273.53;4516469;28;20052;-67
2023/05/15 02:50:00;;;;;;;0.60;0.60;;;;;;;22.87;41.91;100254.94;4516657;28;20719;-67
2023/05/15 02:52:11;;;;;;;0.50;0.50;;;;;;;22.91;41.81;100261.59;4490006;28;20042;-67
2023/05/15 02:54:22;;;;;;;0.60;0.60;;;;;;;22.93;42.34;100264.91;4516618;28;20037;-67
2023/05/15 02:56:32;;;;;;;0.60;0.60;;;;;;;22.92;42.17;100257.47;4516742;28;20037;-67
2023/05/15 02:58:43;;;;;;;0.60;0.60;;;;;;;22.91;42.26;100259.50;4514413;28;20565;-67
2023/05/15 03:00:53;;;;;;;0.77;0.77;;;;;;;22.90;42.09;100255.00;4516688;28;20207;-67
2023/05/15 03:03:04;;;;;;;0.70;0.70;;;;;;;22.91;41.91;100255.81;4516822;28;20109;-67
2023/05/15 03:05:14;;;;;;;0.60;0.60;;;;;;;22.90;42.03;100259.91;4515215;28;20632;-67
2023/05/15 03:07:25;;;;;;;0.60;0.60;;;;;;;22.84;42.61;100244.22;4514793;28;20777;-67
2023/05/15 03:09:36;;;;;;;0.85;0.60;;;;;;;22.87;42.12;100246.31;4516629;28;20809;-67
2023/05/15 03:11:46;;;;;;;0.60;0.60;;;;;;;22.88;41.81;100240.16;4517175;28;20029;-67
2023/05/15 03:13:58;;;;;;;0.73;0.60;;;;;;;22.82;42.17;100232.25;4517021;28;20044;-67
2023/05/15 03:16:09;;;;;;;0.60;0.60;;;;;;;22.87;41.80;100244.25;4489666;28;20022;-68
2023/05/15 03:18:19;;;;;;;0.60;0.60;;;;;;;22.86;42.12;100248.38;4498769;28;20062;-68
2023/05/15 03:20:30;;;;;;;0.80;0.70;;;;;;;22.85;41.74;100243.81;4517418;28;20077;-68
2023/05/15 03:22:41;;;;;;;0.70;0.70;;;;;;;22.85;42.06;100238.06;4517005;28;20383;-68
2023/05/15 03:24:51;;;;;;;0.70;0.60;;;;;;;22.86;41.69;100236.84;4516177;28;20087;-68
2023/05/15 03:27:02;;;;;;;0.60;0.60;;;;;;;22.84;41.87;100239.28;4516753;28;20544;-67
2023/05/15 03:29:12;;;;;;;0.60;0.60;;;;;;;22.86;41.70;100238.91;4497971;28;20104;-68
2023/05/15 03:31:23;;;;;;;0.60;0.60;;;;;;;22.86;42.05;100247.53;4516272;28;20076;-68
2023/05/15 03:33:33;;;;;;;0.60;0.60;;;;;;;22.86;41.75;100241.78;4516672;28;20037;-67
2023/05/15 03:35:44;;;;;;;0.60;0.60;;;;;;;22.85;42.14;100246.69;4498665;28;20048;-68
2023/05/15 03:37:55;;;;;;;0.57;0.57;;;;;;;22.84;41.97;100242.16;4498251;28;20045;-70
2023/05/15 03:40:06;;;;;;;0.70;0.57;;;;;;;22.80;41.59;100238.41;4517831;28;20076;-68
2023/05/15 03:42:22;;;;;;;0.63;0.63;;;;;;;22.82;41.60;100235.13;4517212;28;20029;-68
2023/05/15 03:44:32;;;;;;;0.70;0.60;;;;;;;22.83;42.01;100239.69;4516069;28;20033;-68
2023/05/15 03:46:42;;;;;;;0.57;0.57;;;;;;;22.85;41.67;100251.63;4515784;28;20625;-68
2023/05/15 03:48:54;;;;;;;0.70;0.70;;;;;;;22.84;42.15;100238.44;4514196;28;20040;-68
2023/05/15 03:51:05;;;;;;;0.50;0.50;;;;;;;22.84;41.93;100245.03;4515687;28;20044;-67
2023/05/15 03:53:15;;;;;;;0.60;0.60;;;;;;;22.81;42.07;100242.13;4516679;28;20048;-69
2023/05/15 03:55:26;;;;;;;0.80;0.70;;;;;;;22.83;42.10;100245.44;4496492;28;20041;-68
2023/05/15 03:57:36;;;;;;;0.50;0.50;;;;;;;22.84;42.06;100252.84;4516064;28;20382;-68
2023/05/15 03:59:47;;;;;;;1.15;0.70;;;;;;;22.78;41.82;100234.25;4516413;28;20049;-68
2023/05/15 04:01:57;;;;;;;1.27;0.70;;;;;;;22.84;41.86;100249.97;4516302;28;20490;-68
2023/05/15 04:04:08;;;;;;;0.60;0.60;;;;;;;22.83;41.76;100254.06;4515393;28;20507;-67
2023/05/15 04:06:18;;;;;;;1.02;0.60;;;;;;;22.83;41.80;100251.19;4516536;28;20037;-68
2023/05/15 04:08:28;;;;;;;1.20;0.63;;;;;;;22.82;41.89;100240.88;4514516;28;20108;-68
2023/05/15 04:10:39;;;;;;;0.60;0.60;;;;;;;22.80;42.09;100249.09;4515149;28;20041;-68
2023/05/15 04:12:50;;;;;;;0.60;0.60;;;;;;;22.81;41.77;100247.88;4514586;28;20013;-67
2023/05/15 04:15:21;;;;;;;0.68;0.68;;;;;;;22.81;41.59;100257.34;4514828;28;20432;-67
2023/05/15 04:17:31;;;;;;;0.60;0.60;;;;;;;22.77;41.95;100242.06;4515540;28;20044;-67
2023/05/15 04:19:44;;;;;;;0.60;0.60;;;;;;;22.79;41.58;100254.00;4497395;28;20536;-68
2023/05/15 04:21:55;;;;;;;0.55;0.55;;;;;;;22.80;41.50;100243.34;4513662;28;20057;-68
2023/05/15 04:24:06;;;;;;;0.70;0.70;;;;;;;22.79;41.82;100248.25;4515010;28;20140;-68
2023/05/15 04:26:17;;;;;;;0.63;0.60;;;;;;;22.80;41.63;100254.84;4515860;28;20057;-67
2023/05/15 04:28:27;;;;;;;1.35;0.70;;;;;;;22.79;41.40;100264.69;4514319;28;20547;-67
2023/05/15 04:30:38;;;;;;;0.60;0.60;;;;;;;22.78;41.92;100263.88;4515105;28;20077;-67
2023/05/15 04:32:50;;;;;;;0.60;0.60;;;;;;;22.74;41.60;100254.34;4514429;28;20029;-68
2023/05/15 04:35:05;;;;;;;0.90;0.70;;;;;;;22.79;41.39;100256.06;4514928;28;20040;-68
2023/05/15 04:37:15;;;;;;;0.60;0.60;;;;;;;22.75;41.80;100253.16;4514885;28;20131;-68
2023/05/15 04:39:25;;;;;;;0.90;0.70;;;;;;;22.74;41.90;100251.47;4514850;28;20046;-68
2023/05/15 04:41:36;;;;;;;0.63;0.63;;;;;;;22.78;41.56;100260.16;4515500;28;20121;-67
2023/05/15 04:43:46;;;;;;;0.70;0.70;;;;;;;22.78;41.52;100257.28;4518747;28;20038;-68
2023/05/15 04:45:57;;;;;;;0.65;0.65;;;;;;;22.75;41.64;100256.03;4516170;28;20504;-67
2023/05/15 04:48:07;;;;;;;0.85;0.70;;;;;;;22.77;41.79;100255.63;4518531;28;20020;-68
2023/05/15 04:50:17;;;;;;;0.68;0.68;;;;;;;22.74;41.65;100257.22;4517897;28;20040;-68
2023/05/15 04:52:28;;;;;;;0.75;0.63;;;;;;;22.73;41.68;100252.72;4518511;28;20068;-67
2023/05/15 04:54:38;;;;;;;0.80;0.70;;;;;;;22.75;41.90;100252.31;4498460;28;20096;-67
2023/05/15 04:56:49;;;;;;;0.70;0.70;;;;;;;22.74;41.58;100247.78;4516482;28;20038;-67
2023/05/15 04:59:00;;;;;;;1.50;0.75;;;;;;;22.75;42.03;100252.31;4516946;28;20041;-67
2023/05/15 05:01:10;;;;;;;0.75;0.75;;;;;;;22.66;41.80;100243.16;4518382;28;20544;-68
2023/05/15 05:03:21;;;;;;;2.28;0.60;;;;;;;22.75;41.76;100255.19;4518209;28;20048;-67
2023/05/15 05:05:31;;;;;;;0.60;0.60;;;;;;;22.74;41.60;100250.66;4517936;28;20029;-67
2023/05/15 05:07:44;;;;;;;1.05;0.60;;;;;;;22.73;41.44;100244.06;4516392;28;20117;-67
2023/05/15 05:09:54;;;;;;;0.85;0.60;;;;;;;22.75;41.66;100252.31;4518355;28;20038;-68
2023/05/15 05:12:08;;;;;;;0.77;0.77;;;;;;;22.76;41.64;100248.22;4519397;28;20037;-68
2023/05/15 05:14:18;;;;;;;0.60;0.60;;;;;;;22.73;42.00;100243.22;4519190;28;20591;-67
2023/05/15 05:16:29;;;;;;;1.27;0.60;;;;;;;22.74;41.60;100250.66;4518255;28;20064;-68
2023/05/15 05:18:40;;;;;;;0.68;0.68;;;;;;;22.75;41.61;100256.03;4517857;28;20076;-68
2023/05/15 05:20:58;;;;;;;0.90;0.70;;;;;;;22.74;41.60;100250.66;4517989;28;20040;-68
2023/05/15 05:23:08;;;;;;;0.40;0.40;;;;;;;22.75;47.96;100255.19;4516220;28;20029;-67
2023/05/15 05:25:19;;;;;;;0.43;0.43;;;;;;;22.79;49.01;100258.94;4517533;28;20048;-67
2023/05/15 05:27:29;;;;;;;0.32;0.32;;;;;;;22.80;49.23;100255.66;4517155;28;20080;-68
2023/05/15 05:29:40;;;;;;;0.45;0.40;;;;;;;22.67;49.10;100237.00;4515734;28;20088;-67
2023/05/15 05:31:50;;;;;;;0.40;0.40;;;;;;;22.79;49.05;100261.81;4516953;28;20041;-67
2023/05/15 05:34:01;;;;;;;0.50;0.50;;;;;;;22.68;49.35;100237.81;4516252;28;20033;-67
2023/05/15 05:36:11;;;;;;;0.50;0.50;;;;;;;22.77;49.27;100252.75;4517689;28;20034;-67
2023/05/15 05:38:22;;;;;;;0.47;0.47;;;;;;;22.83;49.59;100249.16;4517661;28;20072;-67
2023/05/15 05:40:32;;;;;;;0.40;0.40;;;;;;;22.81;49.17;100256.50;4517493;28;20440;-67
2023/05/15 05:42:43;;;;;;;1.13;0.60;;;;;;;22.80;42.78;100254.84;4515958;28;20041;-67
2023/05/15 05:44:53;;;;;;;0.50;0.50;;;;;;;22.76;49.18;100237.53;4517580;28;20027;-67
2023/05/15 05:47:04;;;;;;;0.45;0.45;;;;;;;22.77;46.13;100239.19;4517748;28;20041;-67
2023/05/15 05:49:14;;;;;;;0.40;0.40;;;;;;;22.74;48.65;100233.41;4515139;28;20116;-67
2023/05/15 05:51:25;;;;;;;0.50;0.50;;;;;;;22.77;47.71;100252.75;4517399;28;20081;-67
2023/05/15 05:53:35;;;;;;;0.60;0.57;;;;;;;22.78;47.37;100251.53;4516877;28;20026;-67
2023/05/15 05:55:46;;;;;;;0.60;0.57;;;;;;;22.80;48.46;100254.84;4499118;28;20042;-67
2023/05/15 05:57:56;;;;;;;0.75;0.50;;;;;;;22.78;47.36;100257.28;4517712;28;20033;-67
2023/05/15 06:00:09;;;;;;;1.40;0.50;;;;;;;22.74;48.16;100262.97;4516009;28;20049;-67
2023/05/15 06:02:19;;;;;;;0.50;0.50;;;;;;;22.78;49.16;100263.88;4516167;28;20137;-67
2023/05/15 06:04:32;;;;;;;0.55;0.50;;;;;;;22.78;48.00;100257.28;4517684;28;20504;-67
2023/05/15 06:06:42;;;;;;;0.40;0.40;;;;;;;22.73;46.53;100254.75;4516036;28;20617;-67
2023/05/15 06:08:53;;;;;;;0.38;0.38;;;;;;;22.77;49.17;100253.56;4499845;28;20415;-67
2023/05/15 06:11:04;;;;;;;0.57;0.47;;;;;;;22.78;48.82;100254.41;4516324;28;20172;-67
2023/05/15 06:13:14;;;;;;;0.50;0.50;;;;;;;22.78;49.43;100257.28;4517662;28;20042;-67
2023/05/15 06:15:25;;;;;;;0.40;0.40;;;;;;;22.79;49.54;100247.41;4517500;28;20061;-67
2023/05/15 06:17:35;;;;;;;0.60;0.50;;;;;;;22.75;48.81;100241.66;4516575;28;20496;-67
2023/05/15 06:19:45;;;;;;;0.50;0.50;;;;;;;22.76;49.25;100251.09;4515374;28;20272;-67
2023/05/15 06:21:56;;;;;;;0.50;0.50;;;;;;;22.77;49.70;100249.88;4516970;28;20037;-67
2023/05/15 06:24:07;;;;;;;0.68;0.68;;;;;;;22.68;44.70;100240.69;4490337;28;20750;-67
2023/05/15 06:26:17;;;;;;;0.60;0.60;;;;;;;22.78;46.38;100257.28;4516660;28;20029;-68
2023/05/15 06:28:28;;;;;;;0.63;0.63;;;;;;;22.75;48.19;100249.44;4516935;28;20083;-67
2023/05/15 06:30:38;;;;;;;0.75;0.50;;;;;;;22.78;48.86;100246.63;4499387;28;20496;-67
2023/05/15 06:32:48;;;;;;;0.65;0.65;;;;;;;22.78;49.01;100249.50;4517415;28;20697;-67
2023/05/15 06:34:59;;;;;;;0.45;0.43;;;;;;;22.77;48.83;100249.88;4516968;28;20025;-67
2023/05/15 06:37:10;;;;;;;0.50;0.50;;;;;;;22.77;47.85;100249.88;4516510;28;20488;-67
2023/05/15 06:39:20;;;;;;;0.70;0.70;;;;;;;22.74;43.87;100245.72;4516983;28;20764;-67
2023/05/15 06:41:31;;;;;;;0.77;0.60;;;;;;;22.70;46.65;100250.63;4517573;28;20076;-67
2023/05/15 06:43:42;;;;;;;0.50;0.50;;;;;;;22.77;47.97;100249.88;4517513;28;20533;-67
2023/05/15 06:45:52;;;;;;;0.45;0.45;;;;;;;22.70;48.71;100244.84;4517405;28;20592;-67
2023/05/15 06:48:03;;;;;;;0.70;0.50;;;;;;;22.73;48.96;100249.00;4517010;28;20030;-67
2023/05/15 06:50:13;;;;;;;0.60;0.60;;;;;;;22.73;48.83;100258.47;4516190;28;20029;-67
2023/05/15 06:52:24;;;;;;;0.80;0.65;;;;;;;22.77;49.40;100261.41;4498143;28;20497;-67
2023/05/15 06:54:34;;;;;;;0.80;0.80;;;;;;;22.70;45.67;100244.03;4515941;28;20030;-67
2023/05/15 06:56:45;;;;;;;0.55;0.55;;;;;;;22.73;49.33;100255.59;4516497;28;20127;-67
2023/05/15 06:58:55;;;;;;;0.80;0.80;;;;;;;22.72;43.56;100264.59;4516710;28;20037;-67
2023/05/15 07:01:08;;;;;;;0.90;0.60;;;;;;;22.74;49.57;100259.31;4515042;28;20037;-67
2023/05/15 07:03:18;;;;;;;0.70;0.70;;;;;;;22.74;48.52;100265.06;4516278;28;20183;-67
2023/05/15 07:05:29;;;;;;;0.70;0.70;;;;;;;22.72;49.78;100258.84;4516607;28;20129;-67
2023/05/15 07:07:40;;;;;;;0.95;0.70;;;;;;;22.74;49.69;100256.41;4514706;28;20038;-66
2023/05/15 07:09:50;;;;;;;0.52;0.52;;;;;;;22.62;49.90;100245.97;4517329;28;20228;-68
2023/05/15 07:12:01;;;;;;;0.70;0.70;;;;;;;22.69;49.65;100245.25;4517053;28;20326;-67
2023/05/15 07:14:11;;;;;;;0.70;0.70;;;;;;;22.76;49.60;100253.97;4517249;28;20097;-67
2023/05/15 07:16:21;;;;;;;0.60;0.60;;;;;;;22.72;49.89;100253.91;4516953;28;20397;-67
2023/05/15 07:18:32;;;;;;;0.60;0.60;;;;;;;22.69;49.80;100251.00;4498430;28;20046;-67
2023/05/15 07:20:42;;;;;;;0.60;0.60;;;;;;;22.74;49.43;100262.19;4517122;28;20042;-67
2023/05/15 07:22:53;;;;;;;0.70;0.70;;;;;;;22.75;49.95;100263.81;4516092;28;20033;-67
2023/05/15 07:25:04;;;;;;;0.70;0.70;;;;;;;22.70;49.60;100255.53;4516202;28;20130;-67
2023/05/15 07:27:14;;;;;;;0.95;0.63;;;;;;;22.73;49.98;100258.47;4516649;28;20116;-67
2023/05/15 07:29:25;;;;;;;0.68;0.68;;;;;;;22.68;49.96;100247.28;4498385;28;20038;-67
2023/05/15 07:31:36;;;;;;;0.82;0.70;;;;;;;22.76;49.60;100262.59;4514986;28;20029;-67
2023/05/15 07:33:46;;;;;;;0.90;0.68;;;;;;;22.75;49.90;100260.94;4516962;28;20033;-67
2023/05/15 07:35:57;;;;;;;1.10;0.88;;;;;;;22.72;50.18;100253.91;4516614;28;20722;-67
2023/05/15 07:38:07;;;;;;;1.10;1.00;;;;;;;22.73;49.89;100251.88;4516921;28;20029;-68
2023/05/15 07:40:18;;;;;;;0.80;0.80;;;;;;;22.71;50.26;100248.53;4516178;28;20864;-67
2023/05/15 07:42:28;;;;;;;0.80;0.80;;;;;;;22.75;49.85;100256.03;4514514;28;20505;-67
2023/05/15 07:44:39;;;;;;;1.42;0.75;;;;;;;22.74;49.97;100250.66;4516115;28;20145;-67
2023/05/15 07:46:49;;;;;;;1.00;0.77;;;;;;;22.75;49.90;100246.56;4515837;28;20034;-68
2023/05/15 07:49:00;;;;;;;0.80;0.80;;;;;;;22.75;49.93;100255.19;4515993;28;20029;-67
2023/05/15 07:51:10;;;;;;;0.77;0.77;;;;;;;22.72;50.01;100248.16;4516320;28;20024;-67
2023/05/15 07:53:21;;;;;;;1.00;0.77;;;;;;;22.73;49.98;100246.94;4516776;28;20038;-67
2023/05/15 07:55:31;;;;;;;0.80;0.80;;;;;;;22.61;50.18;100226.22;4499455;28;20406;-67
2023/05/15 07:57:42;;;;;;;0.80;0.80;;;;;;;22.74;50.05;100250.66;4515096;28;20046;-67
2023/05/15 07:59:52;;;;;;;0.85;0.85;;;;;;;22.72;50.29;100247.34;4515371;28;20248;-67
2023/05/15 08:02:03;;;;;;;1.00;0.85;;;;;;;22.73;50.28;100246.13;4516480;28;20123;-67
2023/05/15 08:04:13;;;;;;;1.00;0.80;;;;;;;22.73;50.53;100244.06;4516148;28;20175;-67
2023/05/15 08:06:24;;;;;;;1.00;0.90;;;;;;;22.75;50.00;100253.16;4514900;28;20091;-67
2023/05/15 08:08:34;;;;;;;0.82;0.77;;;;;;;22.74;50.24;100239.97;4514455;28;20034;-67
2023/05/15 08:10:45;;;;;;;0.90;0.90;;;;;;;22.77;50.21;100249.88;4514744;28;20041;-67
2023/05/15 08:12:55;;;;;;;0.82;0.80;;;;;;;22.75;50.07;100241.66;4515735;28;20712;-67
2023/05/15 08:15:06;;;;;;;0.80;0.80;;;;;;;22.76;49.96;100243.28;4515005;28;20069;-67
2023/05/15 08:17:18;;;;;;;1.55;0.90;;;;;;;22.76;50.06;100243.28;4518646;28;20136;-67
2023/05/15 08:19:28;;;;;;;0.70;0.70;;;;;;;22.75;49.93;100246.56;4518064;28;20538;-67
2023/05/15 08:21:39;;;;;;;1.63;0.93;;;;;;;22.74;50.32;100242.84;4518260;28;20088;-67
2023/05/15 08:23:50;;;;;;;1.05;0.80;;;;;;;22.70;50.37;100236.22;4517215;28;20041;-67
2023/05/15 08:26:00;;;;;;;0.65;0.65;;;;;;;22.72;50.16;100239.53;4519122;28;20083;-67
2023/05/15 08:28:10;;;;;;;3.47;3.17;;;;;;;22.51;46.59;100226.88;4518634;28;20048;-68
2023/05/15 08:30:21;;;;;;;0.98;0.93;;;;;;;22.68;50.33;100240.69;4517347;28;20132;-67
2023/05/15 08:32:31;;;;;;;3.47;3.17;;;;;;;22.52;45.43;100237.19;4518195;28;20037;-67
2023/05/15 08:34:42;;;;;;;5.07;4.60;;;;;;;22.50;46.25;100243.28;4518509;28;20338;-67
2023/05/15 08:36:52;;;;;;;4.40;4.00;;;;;;;22.49;47.51;100237.94;4518237;28;20077;-67
2023/05/15 08:39:03;;;;;;;4.78;4.38;;;;;;;22.47;47.24;100243.25;4517373;28;20095;-67
2023/05/15 08:41:30;;;;;;;5.15;4.70;;;;;;;22.44;47.28;100238.28;4500795;28;20045;-67
2023/05/15 08:43:42;;;;;;;4.85;4.45;;;;;;;22.41;47.99;100242.75;4519227;28;20690;-67
2023/05/15 08:45:54;;;;;;;5.60;5.10;;;;;;;22.40;48.26;100243.97;4518327;28;20765;-67
2023/05/15 08:48:12;;;;;;;5.38;4.88;;;;;;;22.44;48.49;100244.03;4518569;28;20044;-67
2023/05/15 08:50:23;;;;;;;5.32;4.82;;;;;;;22.39;48.60;100244.38;4493637;28;20131;-67
2023/05/15 08:52:34;;;;;;;5.13;4.63;;;;;;;22.41;47.70;100253.41;4518842;28;20765;-67
2023/05/15 08:54:46;;;;;;;5.35;4.85;;;;;;;22.37;47.57;100241.03;4500946;28;20044;-67
2023/05/15 08:57:01;;;;;;;5.40;4.90;;;;;;;22.39;48.22;100248.06;4518949;28;20030;-67
2023/05/15 08:59:11;;;;;;;5.18;4.70;;;;;;;22.39;47.41;100250.13;4518352;28;20045;-66
2023/05/15 09:01:22;;;;;;;5.80;5.30;;;;;;;22.39;47.89;100250.94;4517286;28;20029;-67
2023/05/15 09:03:32;;;;;;;5.38;4.88;;;;;;;22.36;47.88;100251.72;4518483;28;20425;-67
2023/05/15 09:05:43;;;;;;;5.68;5.07;;;;;;;22.37;47.92;100243.91;4518281;28;20104;-67
2023/05/15 09:07:55;;;;;;;6.10;5.50;;;;;;;22.36;47.92;100245.16;4518326;28;20045;-66
2023/05/15 09:10:08;;;;;;;5.60;5.10;;;;;;;22.35;48.17;100247.19;4518872;28;20034;-67
2023/05/15 09:12:20;;;;;;;6.28;5.68;;;;;;;22.38;47.83;100249.28;4518171;28;20042;-67
2023/05/15 09:14:31;;;;;;;1.20;1.10;;;;;;;22.48;50.66;100242.03;4516832;28;20635;-67
2023/05/15 09:16:43;;;;;;;1.08;0.90;;;;;;;22.61;50.64;100243.50;4517977;28;20115;-67
2023/05/15 09:18:53;;;;;;;1.20;1.10;;;;;;;22.64;50.73;100245.59;4517776;28;20026;-67
2023/05/15 09:21:27;;;;;;;1.42;0.82;;;;;;;22.70;50.39;100250.63;4517920;28;20045;-66
2023/05/15 09:23:37;;;;;;;0.80;0.80;;;;;;;22.73;50.34;100249.00;4518245;28;20116;-64
2023/05/15 09:25:52;;;;;;;1.10;1.00;;;;;;;22.75;50.37;100247.41;4517958;28;20041;-68
2023/05/15 09:28:03;;;;;;;1.25;1.00;;;;;;;22.74;50.64;100242.03;4499775;28;20037;-65
2023/05/15 09:30:17;;;;;;;0.82;0.82;;;;;;;22.73;50.18;100244.06;4517658;28;20041;-66
2023/05/15 09:32:27;;;;;;;0.80;0.80;;;;;;;22.76;50.47;100248.22;4517573;28;20037;-65
2023/05/15 09:34:42;;;;;;;1.10;1.00;;;;;;;22.78;50.50;100243.75;4518209;28;20030;-66
2023/05/15 09:36:53;;;;;;;1.00;1.00;;;;;;;22.80;50.41;100243.34;4517377;28;20029;-67
2023/05/15 09:39:03;;;;;;;0.80;0.80;;;;;;;22.79;50.23;100244.53;4517375;28;20046;-66
2023/05/15 09:41:23;;;;;;;0.98;0.90;;;;;;;22.82;50.37;100241.72;4517484;28;20042;-66
2023/05/15 09:43:37;;;;;;;0.98;0.98;;;;;;;22.83;50.40;100237.66;4517070;28;20587;-66
2023/05/15 09:45:47;;;;;;;0.98;0.88;;;;;;;22.80;50.04;100231.84;4517256;28;20813;-67
2023/05/15 09:48:04;;;;;;;0.90;0.90;;;;;;;22.85;50.59;100234.38;4517553;28;20041;-66
2023/05/15 09:50:20;;;;;;;0.80;0.80;;;;;;;22.77;50.15;100221.91;4515650;28;20056;-66
2023/05/15 09:52:30;;;;;;;1.02;1.02;;;;;;;22.83;50.18;100226.13;4517907;28;20116;-66
2023/05/15 09:54:44;;;;;;;0.95;0.95;;;;;;;22.84;50.28;100224.06;4517623;28;20037;-66
2023/05/15 09:56:56;;;;;;;1.00;0.90;;;;;;;22.79;50.16;100215.78;4517240;28;20592;-66
2023/05/15 09:59:12;;;;;;;0.90;0.90;;;;;;;22.84;50.09;100226.94;4517368;28;20033;-66
2023/05/15 10:01:24;;;;;;;0.90;0.90;;;;;;;22.81;50.17;100219.94;4517896;28;20600;-65
2023/05/15 10:03:34;;;;;;;1.58;0.90;;;;;;;22.85;50.21;100228.63;4517257;28;20038;-66
2023/05/15 10:05:45;;;;;;;0.95;0.90;;;;;;;22.86;50.06;100227.38;4517246;28;20032;-66
2023/05/15 10:07:56;;;;;;;2.72;2.45;;;;;;;22.61;48.81;100229.09;4516758;28;20046;-66
2023/05/15 10:10:07;;;;;;;5.35;4.85;;;;;;;22.54;47.87;100229.00;4517531;28;20100;-66
2023/05/15 10:12:17;;;;;;;4.72;4.32;;;;;;;22.51;47.69;100224.00;4517541;28;20084;-66
2023/05/15 10:14:29;;;;;;;4.68;4.28;;;;;;;22.50;47.62;100228.09;4517783;28;20509;-66